createdAt,value
2019-05-22T00:06:55.979Z,46.19
2019-05-22T00:17:01.368Z,45.81
2019-05-22T00:27:05.719Z,45.98
2019-05-22T00:37:09.579Z,45.99
2019-05-22T00:47:14.339Z,46.01
2019-05-22T00:57:34.536Z,45.92
2019-05-22T01:07:39.678Z,45.90
2019-05-22T01:17:44.858Z,46.05
2019-05-22T01:27:52.013Z,46.00
2019-05-22T01:37:55.868Z,45.94
2019-05-22T01:48:00.316Z,45.39
2019-05-22T01:58:06.006Z,46.06
2019-05-22T02:08:11.434Z,45.69
2019-05-22T02:18:16.675Z,45.88
2019-05-22T02:28:22.158Z,46.09
2019-05-22T02:38:28.896Z,45.99
2019-05-22T02:48:33.071Z,45.80
2019-05-22T02:58:37.420Z,45.85
2019-05-22T03:09:00.804Z,45.88
2019-05-22T03:19:08.937Z,45.99
2019-05-22T03:29:10.976Z,46.02
2019-05-22T03:39:16.289Z,45.72
2019-05-22T03:49:30.017Z,46.06
2019-05-22T03:59:25.964Z,45.65
2019-05-22T04:09:31.099Z,46.05
2019-05-22T04:19:48.532Z,46.24
2019-05-22T04:29:40.902Z,46.16
2019-05-22T04:39:46.690Z,46.03
2019-05-22T04:50:06.295Z,46.29
2019-05-22T04:59:55.903Z,46.40
2019-05-22T05:09:59.431Z,46.08
2019-05-22T05:20:02.988Z,46.15
2019-05-22T05:30:07.266Z,46.21
2019-05-22T05:40:25.317Z,46.14
2019-05-22T05:50:39.055Z,46.36
2019-05-22T06:00:36.739Z,46.41
2019-05-22T06:10:43.893Z,46.44
2019-05-22T06:21:02.848Z,46.48
2019-05-22T06:30:52.854Z,46.25
2019-05-22T06:40:56.413Z,46.91
2019-05-22T06:51:00.126Z,48.17
2019-05-22T07:01:04.367Z,47.79
2019-05-22T07:11:07.957Z,47.37
2019-05-22T07:21:11.783Z,47.30
2019-05-22T07:31:15.639Z,47.08
2019-05-22T07:41:19.833Z,46.78
2019-05-22T07:51:23.491Z,47.30
2019-05-22T08:01:27.387Z,46.19
2019-05-22T08:11:31.331Z,46.90
2019-05-22T08:21:35.090Z,46.79
2019-05-22T08:31:39.459Z,46.75
2019-05-22T08:41:43.965Z,46.82
2019-05-22T08:51:47.685Z,46.37
2019-05-22T09:01:51.642Z,46.56
2019-05-22T09:11:55.567Z,46.33
2019-05-22T09:21:59.147Z,46.28
2019-05-22T09:32:04.628Z,46.41
2019-05-22T09:42:08.944Z,46.42
2019-05-22T09:52:13.892Z,45.71
2019-05-22T10:02:17.530Z,46.38
2019-05-22T10:12:21.365Z,45.44
2019-05-22T10:22:24.912Z,45.93
2019-05-22T10:32:32.123Z,45.89
2019-05-22T10:42:35.385Z,45.68
2019-05-22T10:52:38.955Z,45.69
2019-05-22T11:02:42.610Z,45.61
2019-05-22T11:12:46.581Z,44.82
2019-05-22T11:22:50.483Z,45.42
2019-05-22T11:32:54.855Z,45.72
2019-05-22T11:42:58.634Z,45.36
2019-05-22T11:53:03.239Z,45.53
2019-05-22T12:03:07.470Z,45.62
2019-05-22T12:13:12.359Z,45.66
2019-05-22T12:23:15.905Z,46.06
2019-05-22T12:33:19.843Z,47.99
2019-05-22T12:43:24.093Z,47.89
2019-05-22T12:53:28.131Z,47.54
2019-05-22T13:03:33.094Z,45.04
2019-05-22T13:13:36.679Z,47.36
2019-05-22T13:23:42.026Z,46.99
2019-05-22T13:33:46.321Z,45.64
2019-05-22T13:43:50.771Z,45.57
2019-05-22T13:53:54.315Z,46.22
2019-05-22T14:03:57.953Z,45.62
2019-05-22T14:14:01.652Z,46.82
2019-05-22T14:24:05.220Z,46.96
2019-05-22T14:34:08.874Z,46.50
2019-05-22T14:44:12.439Z,46.81
2019-05-22T14:54:16.141Z,46.30
2019-05-22T15:04:19.757Z,45.35
2019-05-22T15:14:23.335Z,47.02
2019-05-22T15:24:27.685Z,47.09
2019-05-22T15:34:32.908Z,47.11
2019-05-22T15:44:37.935Z,46.70
2019-05-22T15:54:42.944Z,46.91
2019-05-22T16:04:46.924Z,46.99
2019-05-22T16:14:50.474Z,46.54
2019-05-22T16:24:54.321Z,48.40
2019-05-22T16:34:58.052Z,48.36
2019-05-22T16:45:04.460Z,47.22
2019-05-22T16:55:09.980Z,48.11
2019-05-22T17:05:14.045Z,48.07
2019-05-22T17:15:18.491Z,47.97
2019-05-22T17:25:23.579Z,47.04
2019-05-22T17:35:28.315Z,47.18
2019-05-22T17:45:33.228Z,49.40
2019-05-22T17:55:37.140Z,49.06
2019-05-22T18:05:42.163Z,49.70
2019-05-22T18:15:46.625Z,49.50
2019-05-22T18:25:50.335Z,49.87
2019-05-22T18:35:53.902Z,49.05
2019-05-22T18:45:57.684Z,46.72
2019-05-22T18:56:01.384Z,45.87
2019-05-22T19:06:05.070Z,45.74
2019-05-22T19:16:08.629Z,45.22
2019-05-22T19:26:12.190Z,45.10
2019-05-22T19:36:15.779Z,46.06
2019-05-22T19:46:19.559Z,46.04
2019-05-22T19:56:24.624Z,46.65
2019-05-22T20:06:28.282Z,46.88
2019-05-22T20:16:32.193Z,46.44
2019-05-22T20:26:36.028Z,46.99
2019-05-22T20:36:40.678Z,47.46
2019-05-22T20:46:45.696Z,47.31
2019-05-22T20:56:53.889Z,47.19
2019-05-22T21:07:00.615Z,47.58
2019-05-22T21:17:06.313Z,47.67
2019-05-22T21:27:11.214Z,46.86
2019-05-22T21:37:15.824Z,47.55
2019-05-22T21:47:20.365Z,47.85
2019-05-22T21:57:24.288Z,47.89
2019-05-22T22:07:28.362Z,48.85
2019-05-22T22:17:33.840Z,48.74
2019-05-22T22:27:43.685Z,48.19
2019-05-22T22:37:48.977Z,48.83
2019-05-22T22:47:54.256Z,48.56
2019-05-22T22:57:57.813Z,49.19
2019-05-22T23:08:01.512Z,48.49
2019-05-22T23:18:06.162Z,48.78
2019-05-22T23:28:11.063Z,49.29
2019-05-22T23:38:15.295Z,49.40
2019-05-22T23:48:19.957Z,49.29
2019-05-22T23:58:25.090Z,49.51
